Flight Track Log - Related Links

Times and Time Zones

All times are in EDT time to prevent confusion due to time zone crossing. See the TAM3719 flight status page for this flight to view local times or setup timezone preferences in your user account.

Time Position Orientation Groundspeed Altitude Reporting Facility
EDT Latitude Longitude Course Direction KTS MPH feet Rate Location/Type
Mon 05:20:32 AM -19.0543 -47.4106 171° South  Level Estimated
Mon 05:21:32 AM -19.1467 -47.3958 171° South  Level Estimated
Mon 05:22:32 AM -19.2391 -47.3809 171° South  Level Estimated
Mon 05:23:32 AM -19.3315 -47.3661 171° South  Level Estimated
Mon 05:24:32 AM -19.4239 -47.3512 171° South  Level Estimated
Mon 05:25:32 AM -19.5163 -47.3363 171° South  Level Estimated
Mon 05:26:32 AM -19.6087 -47.3214 171° South  Level Estimated
Mon 05:27:32 AM -19.7011 -47.3065 171° South  Level Estimated
Mon 05:28:32 AM -19.7935 -47.2916 171° South  Level Estimated
Mon 05:29:32 AM -19.8859 -47.2767 171° South  Level Estimated
Mon 05:30:32 AM -19.9783 -47.2617 171° South  Level Estimated
Mon 05:31:32 AM -20.0707 -47.2467 171° South  Level Estimated
Mon 05:32:32 AM -20.1631 -47.2317 171° South  Level Estimated
Mon 05:33:32 AM -20.2555 -47.2167 171° South  Level Estimated
Mon 05:34:32 AM -20.3479 -47.2017 171° South  Level Estimated
Mon 05:35:32 AM -20.4402 -47.1866 171° South  Level Estimated
Mon 05:36:32 AM -20.5326 -47.1716 171° South  Level Estimated
Mon 05:37:32 AM -20.6250 -47.1565 171° South  Level Estimated
Mon 05:38:32 AM -20.7174 -47.1413 171° South  Level Estimated
Mon 05:39:32 AM -20.8098 -47.1262 171° South  Level Estimated
Mon 05:40:32 AM -20.9022 -47.1111 171° South  Level Estimated
Mon 05:41:32 AM -20.9945 -47.0959 171° South  Level Estimated
Mon 05:42:32 AM -21.0869 -47.0807 171° South  Level Estimated
Mon 05:43:32 AM -21.1793 -47.0655 171° South  Level Estimated
Mon 05:44:32 AM -21.2717 -47.0503 171° South  Level Estimated
Mon 05:45:32 AM -21.3640 -47.0351 171° South  Level Estimated
Mon 05:46:32 AM -21.4564 -47.0198 171° South  Level Estimated
Mon 05:47:32 AM -21.5488 -47.0045 171° South  Level Estimated
Mon 05:48:32 AM -21.6412 -46.9892 171° South  Level Estimated
Mon 05:49:32 AM -21.7335 -46.9739 171° South  Level Estimated
Mon 05:50:32 AM -21.8259 -46.9586 171° South  Level Estimated
Mon 05:51:32 AM -21.9183 -46.9432 171° South  Level Estimated
Mon 05:52:32 AM -22.0106 -46.9278 171° South  Level Estimated
Mon 05:53:32 AM -22.1030 -46.9124 171° South  Level Estimated
Mon 05:54:32 AM -22.1953 -46.8970 171° South  Level Estimated
Mon 05:55:32 AM -22.2877 -46.8816 171° South  Level Estimated
Mon 05:56:32 AM -22.3801 -46.8661 171° South  Level Estimated
Mon 05:57:32 AM -22.4724 -46.8506 171° South  Level Estimated
Mon 05:58:32 AM -22.5648 -46.8351 171° South  Level Estimated
Mon 05:59:32 AM -22.6571 -46.8196 171° South  Level Estimated
Mon 06:00:32 AM -22.7495 -46.8041 171° South  Level Estimated
Mon 06:01:32 AM -22.8418 -46.7885 171° South  Level Estimated
Mon 06:02:32 AM -22.9342 -46.7729 171° South  Level Estimated
Mon 06:03:32 AM -23.0265 -46.7573 171° South  Level Estimated
Mon 06:04:32 AM -23.1189 -46.7417 171° South  Level Estimated
Mon 06:05:32 AM -23.2112 -46.7260 171° South  Level Estimated
Mon 06:06:32 AM -23.3036 -46.7104 171° South  Level Estimated
Mon 06:07:32 AM -23.3959 -46.6947 171° South  Level Estimated
Mon 06:08:32 AM -23.4882 -46.6790 171° South  Level Estimated
Mon 06:09:32 AM -23.5806 -46.6632 171° South  Level Estimated
Mon 06:10:32 AM -23.6729 -46.6475 351° North  Level Estimated
Mon 06:11:32 AM -23.5806 -46.6632 171° South  Level Estimated
Mon 06:12:32 AM -23.6729 -46.6475 351° North  Level Estimated
Mon 06:13:32 AM -23.5806 -46.6632 351° North  Level Estimated

Login

Don't have an account? Register now (free) for customized features, flight alerts, and more!